Time;durP1;ratioP1;P1;durP2;ratioP2;P2;SDS_P1;SDS_P2;PMS_P1;PMS_P2;Temp;Humidity;BMP_temperature;BMP_pressure;BME280_temperature;BME280_humidity;BME280_pressure;Samples;Min_cycle;Max_cycle;Signal;HPM_P1;HPM_P2
2023/03/16 00:02:11;;;;;;;16.83;3.40;;;;;;;;;;5023502;28;20037;-76
2023/03/16 00:04:38;;;;;;;13.30;2.58;;;;;;;;;;5017735;28;20028;-76
2023/03/16 00:07:05;;;;;;;17.67;2.75;;;;;;;;;;5015469;28;20041;-77
2023/03/16 00:09:31;;;;;;;18.85;3.75;;;;;;;;;;5020194;28;20648;-77
2023/03/16 00:11:58;;;;;;;19.50;3.83;;;;;;;;;;5012473;28;20030;-76
2023/03/16 00:14:24;;;;;;;16.45;4.05;;;;;;;;;;5015926;28;20025;-75
2023/03/16 00:16:51;;;;;;;14.57;3.08;;;;;;;;;;5015699;28;20109;-76
2023/03/16 00:19:17;;;;;;;21.60;4.93;;;;;;;;;;5019481;28;20117;-76
2023/03/16 00:21:43;;;;;;;10.93;2.42;;;;;;;;;;5012519;28;20044;-75
2023/03/16 00:24:11;;;;;;;15.98;3.45;;;;;;;;;;5013009;28;20029;-76
2023/03/16 00:26:37;;;;;;;19.17;4.55;;;;;;;;;;5020191;28;20068;-75
2023/03/16 00:29:04;;;;;;;21.48;3.15;;;;;;;;;;5021846;28;20029;-75
2023/03/16 00:31:32;;;;;;;14.63;2.63;;;;;;;;;;5017063;28;20029;-75
2023/03/16 00:33:58;;;;;;;13.13;2.70;;;;;;;;;;5014625;28;20517;-75
2023/03/16 00:36:24;;;;;;;26.27;5.32;;;;;;;;;;5019056;28;20061;-75
2023/03/16 00:38:51;;;;;;;16.48;2.72;;;;;;;;;;5017169;28;20025;-74
2023/03/16 00:41:17;;;;;;;19.50;3.95;;;;;;;;;;5016962;28;20042;-76
2023/03/16 00:43:44;;;;;;;17.70;3.70;;;;;;;;;;5016856;28;20136;-75
2023/03/16 00:46:14;;;;;;;22.52;3.88;;;;;;;;;;4999136;28;20101;-75
2023/03/16 00:48:42;;;;;;;21.85;4.70;;;;;;;;;;5019331;28;20021;-76
2023/03/16 00:51:11;;;;;;;19.05;3.95;;;;;;;;;;4998176;28;20654;-75
2023/03/16 00:53:38;;;;;;;19.63;3.13;;;;;;;;;;5018399;28;20560;-75
2023/03/16 00:56:05;;;;;;;18.15;3.55;;;;;;;;;;5017376;28;20021;-75
2023/03/16 00:58:34;;;;;;;17.58;2.95;;;;;;;;;;5019614;28;20033;-75
2023/03/16 01:01:12;;;;;;;17.10;3.13;;;;;;;;;;5015135;28;20029;-75
2023/03/16 01:03:39;;;;;;;18.90;3.35;;;;;;;;;;5013662;28;20535;-75
2023/03/16 01:06:09;;;;;;;20.15;3.75;;;;;;;;;;5017040;28;20478;-76
2023/03/16 01:08:35;;;;;;;27.17;3.67;;;;;;;;;;5018653;28;20021;-75
2023/03/16 01:11:21;;;;;;;18.15;3.55;;;;;;;;;;5015156;28;20022;-75
2023/03/16 01:13:49;;;;;;;22.73;3.50;;;;;;;;;;5017256;28;20037;-75
2023/03/16 01:16:17;;;;;;;16.90;3.10;;;;;;;;;;5018244;28;20022;-75
2023/03/16 01:18:44;;;;;;;21.35;3.78;;;;;;;;;;5018763;28;20026;-76
2023/03/16 01:21:12;;;;;;;13.75;2.85;;;;;;;;;;5007776;28;20028;-75
2023/03/16 01:23:39;;;;;;;16.23;3.03;;;;;;;;;;5015176;28;20045;-75
2023/03/16 01:26:07;;;;;;;12.85;3.20;;;;;;;;;;5015945;28;20033;-76
2023/03/16 01:28:33;;;;;;;16.80;3.53;;;;;;;;;;5020917;28;20083;-76
2023/03/16 01:31:05;;;;;;;18.55;3.58;;;;;;;;;;5013425;28;20116;-75
2023/03/16 01:33:32;;;;;;;18.95;3.65;;;;;;;;;;5014435;28;20025;-76
2023/03/16 01:36:03;;;;;;;24.48;4.22;;;;;;;;;;5017632;28;20382;-76
2023/03/16 01:38:29;;;;;;;22.40;3.35;;;;;;;;;;5021080;28;20040;-76
2023/03/16 01:40:56;;;;;;;23.52;4.07;;;;;;;;;;5013049;28;20401;-76
2023/03/16 01:43:23;;;;;;;21.85;3.67;;;;;;;;;;5016997;28;20464;-76
2023/03/16 01:46:16;;;;;;;17.15;2.75;;;;;;;;;;5020066;28;20022;-76
2023/03/16 01:48:45;;;;;;;19.65;3.40;;;;;;;;;;5011360;28;20030;-76
2023/03/16 01:51:19;;;;;;;17.13;3.65;;;;;;;;;;5013357;28;20113;-76
2023/03/16 01:53:46;;;;;;;26.48;3.60;;;;;;;;;;5019911;28;20018;-77
2023/03/16 01:56:16;;;;;;;17.92;3.05;;;;;;;;;;5019357;28;20051;-76
2023/03/16 01:58:42;;;;;;;17.17;4.15;;;;;;;;;;5019258;28;20479;-77
2023/03/16 02:01:09;;;;;;;21.65;3.28;;;;;;;;;;5016189;28;20113;-76
2023/03/16 02:03:35;;;;;;;19.05;3.20;;;;;;;;;;5019520;28;20116;-76
2023/03/16 02:06:22;;;;;;;17.48;3.45;;;;;;;;;;5018044;28;20116;-76
2023/03/16 02:08:49;;;;;;;21.98;4.75;;;;;;;;;;5015704;28;20030;-76
2023/03/16 02:11:21;;;;;;;14.02;2.83;;;;;;;;;;4998497;28;20014;-76
2023/03/16 02:13:48;;;;;;;23.63;3.50;;;;;;;;;;5018865;28;20025;-76
2023/03/16 02:16:18;;;;;;;19.55;3.53;;;;;;;;;;5018444;28;20060;-76
2023/03/16 02:18:46;;;;;;;20.25;3.38;;;;;;;;;;5012622;28;20022;-77
2023/03/16 02:21:12;;;;;;;20.15;3.60;;;;;;;;;;5015678;28;20493;-76
2023/03/16 02:23:38;;;;;;;19.75;3.22;;;;;;;;;;5020532;28;20505;-76
2023/03/16 02:26:14;;;;;;;25.63;3.45;;;;;;;;;;5018900;28;20021;-76
2023/03/16 02:28:46;;;;;;;22.75;3.92;;;;;;;;;;5019443;28;20750;-76
2023/03/16 02:31:13;;;;;;;20.88;2.92;;;;;;;;;;5013397;28;20037;-76
2023/03/16 02:33:40;;;;;;;16.95;3.58;;;;;;;;;;5019191;28;20478;-76
2023/03/16 02:36:06;;;;;;;24.33;3.53;;;;;;;;;;5019289;28;20093;-76
2023/03/16 02:38:32;;;;;;;21.83;4.13;;;;;;;;;;5019310;28;20032;-76
2023/03/16 02:41:11;;;;;;;23.52;3.55;;;;;;;;;;5016061;28;20049;-76
2023/03/16 02:43:40;;;;;;;19.67;3.22;;;;;;;;;;5015733;28;20056;-76
2023/03/16 02:46:07;;;;;;;18.35;2.88;;;;;;;;;;5019730;28;20389;-75
2023/03/16 02:48:37;;;;;;;16.42;2.92;;;;;;;;;;5019098;28;20462;-76
2023/03/16 02:51:03;;;;;;;15.50;3.05;;;;;;;;;;5011041;28;20652;-75
2023/03/16 02:53:30;;;;;;;22.05;3.40;;;;;;;;;;5018837;28;20478;-76
2023/03/16 02:55:56;;;;;;;19.98;3.70;;;;;;;;;;5017900;28;20120;-76
2023/03/16 02:58:22;;;;;;;17.45;3.25;;;;;;;;;;5014747;28;20096;-75
2023/03/16 03:00:48;;;;;;;25.58;3.53;;;;;;;;;;4997254;28;20033;-76
2023/03/16 03:03:14;;;;;;;15.43;3.45;;;;;;;;;;5020384;28;20148;-75
2023/03/16 03:05:40;;;;;;;12.80;2.95;;;;;;;;;;5021907;28;20409;-76
2023/03/16 03:08:07;;;;;;;19.40;3.95;;;;;;;;;;5016616;28;20041;-76
2023/03/16 03:10:33;;;;;;;11.70;2.83;;;;;;;;;;5019617;28;20029;-76
2023/03/16 03:12:59;;;;;;;13.23;2.85;;;;;;;;;;5018740;28;20075;-77
2023/03/16 03:15:25;;;;;;;17.50;3.55;;;;;;;;;;5021102;28;20619;-75
2023/03/16 03:17:52;;;;;;;20.70;3.08;;;;;;;;;;5020087;28;20409;-76
2023/03/16 03:20:18;;;;;;;25.50;3.75;;;;;;;;;;5022012;28;20010;-75
2023/03/16 03:22:46;;;;;;;15.63;2.88;;;;;;;;;;5016495;28;20029;-76
2023/03/16 03:25:13;;;;;;;15.07;2.75;;;;;;;;;;5021926;28;20025;-75
2023/03/16 03:27:41;;;;;;;24.45;3.40;;;;;;;;;;5024196;28;20045;-76
2023/03/16 03:30:09;;;;;;;16.58;3.97;;;;;;;;;;5017944;28;20029;-75
2023/03/16 03:32:35;;;;;;;19.38;2.92;;;;;;;;;;5016889;28;20017;-76
2023/03/16 03:35:01;;;;;;;15.13;2.50;;;;;;;;;;5020342;28;20117;-76
2023/03/16 03:37:27;;;;;;;17.45;3.05;;;;;;;;;;5021137;28;20026;-75
2023/03/16 03:39:53;;;;;;;15.20;3.15;;;;;;;;;;5017940;28;20585;-75
2023/03/16 03:42:22;;;;;;;18.95;2.33;;;;;;;;;;5017760;28;20045;-76
2023/03/16 03:44:50;;;;;;;15.80;2.97;;;;;;;;;;5018228;28;20045;-75
2023/03/16 03:47:16;;;;;;;21.52;3.45;;;;;;;;;;5014728;28;20519;-76
2023/03/16 03:49:42;;;;;;;21.50;3.17;;;;;;;;;;5016175;28;20043;-75
2023/03/16 03:52:08;;;;;;;19.92;3.22;;;;;;;;;;5015861;28;20133;-76
2023/03/16 03:54:34;;;;;;;13.50;2.88;;;;;;;;;;5018322;28;20026;-76
2023/03/16 03:57:01;;;;;;;37.10;6.45;;;;;;;;;;5015952;28;20055;-76
2023/03/16 03:59:27;;;;;;;21.48;3.10;;;;;;;;;;5013090;28;20025;-75
2023/03/16 04:01:53;;;;;;;13.80;2.80;;;;;;;;;;5015576;28;20032;-76
2023/03/16 04:04:19;;;;;;;12.52;3.72;;;;;;;;;;5010111;28;20105;-76
2023/03/16 04:06:46;;;;;;;12.63;2.55;;;;;;;;;;4994131;28;20033;-76
2023/03/16 04:09:12;;;;;;;14.15;3.63;;;;;;;;;;5016833;28;20039;-76
2023/03/16 04:11:38;;;;;;;19.00;3.72;;;;;;;;;;5019760;28;20060;-76
2023/03/16 04:14:05;;;;;;;19.02;3.47;;;;;;;;;;5020102;28;20033;-76
2023/03/16 04:16:31;;;;;;;14.10;3.40;;;;;;;;;;5014300;28;20289;-76
2023/03/16 04:18:57;;;;;;;13.77;2.90;;;;;;;;;;5011095;28;20029;-76
2023/03/16 04:21:24;;;;;;;17.17;2.95;;;;;;;;;;5014517;28;20038;-76
2023/03/16 04:23:53;;;;;;;15.57;3.53;;;;;;;;;;5014521;28;20058;-76
2023/03/16 04:26:19;;;;;;;20.05;3.25;;;;;;;;;;5016887;28;20033;-76
2023/03/16 04:28:46;;;;;;;12.30;2.90;;;;;;;;;;5013890;28;20454;-74
2023/03/16 04:31:12;;;;;;;18.60;2.97;;;;;;;;;;5015213;28;20125;-76
2023/03/16 04:33:41;;;;;;;16.38;2.95;;;;;;;;;;5017553;28;20018;-75
2023/03/16 04:36:08;;;;;;;13.77;2.80;;;;;;;;;;5012406;28;20504;-75
2023/03/16 04:38:34;;;;;;;22.88;2.58;;;;;;;;;;4996772;28;20021;-76
2023/03/16 04:41:01;;;;;;;24.52;4.68;;;;;;;;;;5012258;28;20536;-75
2023/03/16 04:43:27;;;;;;;14.45;2.95;;;;;;;;;;5017628;28;20038;-77
2023/03/16 04:45:54;;;;;;;13.85;2.15;;;;;;;;;;5014893;28;20022;-76
2023/03/16 04:48:20;;;;;;;13.60;2.20;;;;;;;;;;5008641;28;20033;-76
2023/03/16 04:50:47;;;;;;;4.43;1.52;;;;;;;;;;5016898;28;20027;-76
2023/03/16 04:53:13;;;;;;;12.93;2.60;;;;;;;;;;5012283;28;20034;-76
2023/03/16 04:55:40;;;;;;;11.20;2.50;;;;;;;;;;5015772;28;20030;-76
2023/03/16 04:58:07;;;;;;;9.40;2.50;;;;;;;;;;5010148;28;20030;-76
2023/03/16 05:00:33;;;;;;;10.07;1.88;;;;;;;;;;5014597;28;20040;-77
2023/03/16 05:02:59;;;;;;;8.40;1.98;;;;;;;;;;5017317;28;20041;-76
2023/03/16 05:05:25;;;;;;;10.20;2.30;;;;;;;;;;5016246;28;20092;-76
2023/03/16 05:07:51;;;;;;;10.88;2.38;;;;;;;;;;5011271;28;20116;-76
2023/03/16 05:10:18;;;;;;;9.48;2.03;;;;;;;;;;5014560;28;20075;-76
2023/03/16 05:12:44;;;;;;;9.93;2.42;;;;;;;;;;5015323;28;20022;-76
2023/03/16 05:15:11;;;;;;;13.63;2.35;;;;;;;;;;5011820;28;20653;-76
2023/03/16 05:17:37;;;;;;;9.38;2.08;;;;;;;;;;5014237;28;20573;-76
2023/03/16 05:20:06;;;;;;;5.55;1.33;;;;;;;;;;4995335;28;20091;-75
2023/03/16 05:22:34;;;;;;;8.57;1.60;;;;;;;;;;5015435;28;20119;-76
2023/03/16 05:25:03;;;;;;;7.50;1.45;;;;;;;;;;5014431;28;20032;-76
2023/03/16 05:27:29;;;;;;;4.20;1.10;;;;;;;;;;5013186;28;20087;-76
2023/03/16 05:29:55;;;;;;;8.68;1.77;;;;;;;;;;5014720;28;20030;-76
2023/03/16 05:32:22;;;;;;;5.30;1.38;;;;;;;;;;4998886;28;20703;-75
2023/03/16 05:34:48;;;;;;;8.90;1.55;;;;;;;;;;5014751;28;20053;-77
2023/03/16 05:37:14;;;;;;;6.93;1.45;;;;;;;;;;5013415;28;20017;-76
2023/03/16 05:39:40;;;;;;;3.78;1.40;;;;;;;;;;4996891;28;20144;-77
2023/03/16 05:42:06;;;;;;;5.22;1.73;;;;;;;;;;5017058;28;20068;-75
2023/03/16 05:44:33;;;;;;;6.55;1.30;;;;;;;;;;5012893;28;20042;-76
2023/03/16 05:46:59;;;;;;;4.53;1.20;;;;;;;;;;5011957;28;20018;-76
2023/03/16 05:49:25;;;;;;;5.75;1.52;;;;;;;;;;5011421;28;20375;-76
2023/03/16 05:51:51;;;;;;;6.60;1.30;;;;;;;;;;5017574;28;20551;-77
2023/03/16 05:54:17;;;;;;;5.55;1.35;;;;;;;;;;5016126;28;20026;-77
2023/03/16 05:56:44;;;;;;;4.80;1.23;;;;;;;;;;5010380;28;20164;-75
2023/03/16 05:59:10;;;;;;;6.20;1.08;;;;;;;;;;5014322;28;20033;-76
2023/03/16 06:01:36;;;;;;;7.57;1.35;;;;;;;;;;5015653;28;20100;-77
2023/03/16 06:04:04;;;;;;;3.25;1.20;;;;;;;;;;5010589;28;20037;-76
2023/03/16 06:06:30;;;;;;;4.15;1.60;;;;;;;;;;5009903;28;20037;-76
2023/03/16 06:08:57;;;;;;;4.45;1.15;;;;;;;;;;5014131;28;20056;-74
2023/03/16 06:11:23;;;;;;;5.80;1.20;;;;;;;;;;5013263;28;20060;-76
2023/03/16 06:13:49;;;;;;;8.38;1.52;;;;;;;;;;5013958;28;20031;-77
2023/03/16 06:16:15;;;;;;;4.68;1.02;;;;;;;;;;5012698;28;20091;-76
2023/03/16 06:18:42;;;;;;;4.25;1.20;;;;;;;;;;5011964;28;20033;-76
2023/03/16 06:21:08;;;;;;;10.27;1.42;;;;;;;;;;5016637;28;20027;-75
2023/03/16 06:23:34;;;;;;;3.92;1.17;;;;;;;;;;5012370;28;20041;-76
2023/03/16 06:26:00;;;;;;;9.43;1.40;;;;;;;;;;5011056;28;20037;-76
2023/03/16 06:28:27;;;;;;;6.07;1.27;;;;;;;;;;5012717;28;20766;-76
2023/03/16 06:30:54;;;;;;;3.90;0.90;;;;;;;;;;5008619;28;20030;-76
2023/03/16 06:33:20;;;;;;;9.38;1.50;;;;;;;;;;5016559;28;20029;-76
2023/03/16 06:35:50;;;;;;;7.35;1.30;;;;;;;;;;5008838;28;20022;-75
2023/03/16 06:38:16;;;;;;;3.80;1.10;;;;;;;;;;5015999;28;20041;-76
2023/03/16 06:40:42;;;;;;;6.25;1.38;;;;;;;;;;5013902;28;20050;-76
2023/03/16 06:43:09;;;;;;;7.85;1.30;;;;;;;;;;5018508;28;20042;-76
2023/03/16 06:45:35;;;;;;;5.88;1.52;;;;;;;;;;5013136;28;20481;-76
2023/03/16 06:48:01;;;;;;;6.28;1.42;;;;;;;;;;5014305;28;20021;-76
2023/03/16 06:50:28;;;;;;;6.20;1.27;;;;;;;;;;5016137;28;20747;-76
2023/03/16 06:52:54;;;;;;;6.15;1.20;;;;;;;;;;5016543;28;20056;-75
2023/03/16 06:55:20;;;;;;;3.92;1.00;;;;;;;;;;5012434;28;20025;-76
2023/03/16 06:57:46;;;;;;;7.60;1.60;;;;;;;;;;5011387;28;20534;-79
2023/03/16 07:00:14;;;;;;;3.28;1.00;;;;;;;;;;5016381;28;20129;-78
2023/03/16 07:02:42;;;;;;;4.60;1.23;;;;;;;;;;5000041;28;20065;-76
2023/03/16 07:05:11;;;;;;;6.22;1.75;;;;;;;;;;5013744;28;20022;-78
2023/03/16 07:07:38;;;;;;;3.45;1.08;;;;;;;;;;5015212;28;20028;-78
2023/03/16 07:10:04;;;;;;;10.25;3.35;;;;;;;;;;5013964;28;20565;-78
2023/03/16 07:12:30;;;;;;;4.80;1.10;;;;;;;;;;5019360;28;20390;-78
2023/03/16 07:14:56;;;;;;;3.60;1.30;;;;;;;;;;5012806;28;20097;-77
2023/03/16 07:17:23;;;;;;;6.28;1.90;;;;;;;;;;5015446;28;20124;-78
2023/03/16 07:19:49;;;;;;;7.88;1.45;;;;;;;;;;5014081;28;20049;-78
2023/03/16 07:22:15;;;;;;;3.00;1.00;;;;;;;;;;4998075;28;20112;-78
2023/03/16 07:24:43;;;;;;;8.77;1.35;;;;;;;;;;4993960;28;20515;-78
2023/03/16 07:27:09;;;;;;;3.28;0.80;;;;;;;;;;5014681;28;20537;-79
2023/03/16 07:29:35;;;;;;;4.45;1.20;;;;;;;;;;5010445;28;20040;-77
2023/03/16 07:32:04;;;;;;;12.65;1.73;;;;;;;;;;4995238;28;20026;-74
2023/03/16 07:34:30;;;;;;;3.92;0.85;;;;;;;;;;5018749;28;20084;-78
2023/03/16 07:36:58;;;;;;;3.70;0.85;;;;;;;;;;5021949;28;20022;-79
2023/03/16 07:39:25;;;;;;;7.47;1.33;;;;;;;;;;5016851;28;20028;-78
2023/03/16 07:41:51;;;;;;;6.03;1.60;;;;;;;;;;5017000;28;20579;-76
2023/03/16 07:44:17;;;;;;;4.80;1.20;;;;;;;;;;5015987;28;20553;-75
2023/03/16 07:46:44;;;;;;;4.72;1.20;;;;;;;;;;5017130;28;20025;-74
2023/03/16 07:49:11;;;;;;;5.97;1.25;;;;;;;;;;5019245;28;20122;-82
2023/03/16 07:51:37;;;;;;;6.13;1.10;;;;;;;;;;5019114;28;20079;-82
2023/03/16 07:54:04;;;;;;;4.57;1.50;;;;;;;;;;5001357;28;20041;-81
2023/03/16 07:56:30;;;;;;;6.53;1.45;;;;;;;;;;5018894;28;20030;-82
2023/03/16 07:58:56;;;;;;;6.45;0.90;;;;;;;;;;4999415;28;20022;-83
2023/03/16 08:01:23;;;;;;;1.55;0.65;;;;;;;;;;5017615;28;21014;-81
2023/03/16 08:03:49;;;;;;;4.30;1.00;;;;;;;;;;5013762;28;20025;-82
2023/03/16 08:06:15;;;;;;;2.70;0.85;;;;;;;;;;5017944;28;20488;-81
2023/03/16 08:08:41;;;;;;;4.05;1.48;;;;;;;;;;5018823;28;20067;-82
2023/03/16 08:11:08;;;;;;;4.95;1.05;;;;;;;;;;5021259;28;20021;-81
2023/03/16 08:13:34;;;;;;;4.55;1.00;;;;;;;;;;5000313;28;20473;-83
2023/03/16 08:16:00;;;;;;;2.35;0.68;;;;;;;;;;5015655;28;20042;-81
2023/03/16 08:18:30;;;;;;;7.38;1.20;;;;;;;;;;5016417;28;20033;-81
2023/03/16 08:20:56;;;;;;;3.70;0.90;;;;;;;;;;5019725;28;20029;-83
2023/03/16 08:23:23;;;;;;;1.63;0.80;;;;;;;;;;5014450;28;20056;-84
2023/03/16 08:25:53;;;;;;;5.43;1.10;;;;;;;;;;4996792;28;20023;-85
2023/03/16 08:28:20;;;;;;;1.77;0.65;;;;;;;;;;5017228;28;20018;-83
2023/03/16 08:30:51;;;;;;;6.07;0.80;;;;;;;;;;5003332;28;20025;-80
2023/03/16 08:33:19;;;;;;;5.97;1.08;;;;;;;;;;5015063;28;20115;-81
2023/03/16 08:35:46;;;;;;;2.97;1.05;;;;;;;;;;5012287;28;20014;-80
2023/03/16 08:38:32;;;;;;;2.15;0.65;;;;;;;;;;5015822;28;20136;-81
2023/03/16 08:41:03;;;;;;;5.55;0.82;;;;;;;;;;5001129;28;20049;-81
2023/03/16 08:43:29;;;;;;;1.67;0.82;;;;;;;;;;4999547;28;20057;-79
2023/03/16 08:45:55;;;;;;;2.65;0.95;;;;;;;;;;5000718;28;20045;-86
2023/03/16 08:48:21;;;;;;;6.63;1.00;;;;;;;;;;5018269;28;20485;-78
2023/03/16 08:50:48;;;;;;;3.25;1.30;;;;;;;;;;4996951;28;20235;-82
2023/03/16 08:53:14;;;;;;;2.97;1.00;;;;;;;;;;5015856;28;20026;-81
2023/03/16 08:55:41;;;;;;;4.35;0.80;;;;;;;;;;5017104;28;20056;-75
2023/03/16 08:58:08;;;;;;;4.53;1.10;;;;;;;;;;5019557;28;20024;-77
2023/03/16 09:00:35;;;;;;;7.57;1.58;;;;;;;;;;5019542;28;20017;-77
2023/03/16 09:03:01;;;;;;;4.03;1.20;;;;;;;;;;5017377;28;20048;-78
2023/03/16 09:05:28;;;;;;;4.15;1.48;;;;;;;;;;4997934;28;20037;-79
2023/03/16 09:07:54;;;;;;;6.97;2.05;;;;;;;;;;5017285;28;20032;-78
2023/03/16 09:10:21;;;;;;;4.30;0.80;;;;;;;;;;5019898;28;20515;-78
2023/03/16 09:12:51;;;;;;;6.90;1.42;;;;;;;;;;4999730;28;20199;-78
2023/03/16 09:15:19;;;;;;;1.70;0.75;;;;;;;;;;5015517;28;20057;-78
2023/03/16 09:17:52;;;;;;;2.67;0.90;;;;;;;;;;5017720;28;20087;-78
2023/03/16 09:20:18;;;;;;;8.05;3.08;;;;;;;;;;4997283;28;20033;-78
2023/03/16 09:22:44;;;;;;;7.00;3.05;;;;;;;;;;4995592;28;20379;-77
2023/03/16 09:25:11;;;;;;;5.18;1.50;;;;;;;;;;5016346;28;20029;-78
2023/03/16 09:27:37;;;;;;;6.82;1.02;;;;;;;;;;5014103;28;20013;-79
2023/03/16 09:30:04;;;;;;;3.28;0.88;;;;;;;;;;5016394;28;20575;-77
2023/03/16 09:32:32;;;;;;;7.07;2.17;;;;;;;;;;5018382;28;20017;-77
2023/03/16 09:34:58;;;;;;;39.55;3.97;;;;;;;;;;4997956;28;20737;-79
2023/03/16 09:37:25;;;;;;;7.63;1.00;;;;;;;;;;5000228;28;20026;-77
2023/03/16 09:39:51;;;;;;;5.45;1.10;;;;;;;;;;5016781;28;20088;-77
2023/03/16 09:42:27;;;;;;;3.20;0.77;;;;;;;;;;4992867;28;20048;-77
2023/03/16 09:44:56;;;;;;;3.08;0.85;;;;;;;;;;5013496;28;20029;-77
2023/03/16 09:47:24;;;;;;;1.55;0.60;;;;;;;;;;4999569;28;20018;-79
2023/03/16 09:49:51;;;;;;;3.22;0.80;;;;;;;;;;5016820;28;20033;-78
2023/03/16 09:52:37;;;;;;;0.90;0.60;;;;;;;;;;4998796;28;20833;-79
2023/03/16 09:55:12;;;;;;;2.72;0.70;;;;;;;;;;5014426;28;20029;-79
2023/03/16 09:57:43;;;;;;;2.08;0.55;;;;;;;;;;5014010;28;20560;-78
2023/03/16 10:00:23;;;;;;;3.67;0.90;;;;;;;;;;5018157;28;20627;-78
2023/03/16 10:02:52;;;;;;;4.15;0.98;;;;;;;;;;5015190;28;20145;-79
2023/03/16 10:05:21;;;;;;;4.35;1.25;;;;;;;;;;5012770;28;20492;-79
2023/03/16 10:08:06;;;;;;;5.70;1.63;;;;;;;;;;5016112;28;20658;-80
2023/03/16 10:10:55;;;;;;;3.83;0.70;;;;;;;;;;5014108;28;20025;-79
2023/03/16 10:13:27;;;;;;;3.22;1.00;;;;;;;;;;4997729;28;20112;-78
2023/03/16 10:15:55;;;;;;;17.48;8.35;;;;;;;;;;5016259;28;20101;-78
2023/03/16 10:18:26;;;;;;;4.70;1.65;;;;;;;;;;5018522;28;20017;-78
2023/03/16 10:20:54;;;;;;;16.30;6.28;;;;;;;;;;5005295;28;20034;-79
2023/03/16 10:23:23;;;;;;;3.72;1.77;;;;;;;;;;4996643;28;20506;-79
2023/03/16 10:25:54;;;;;;;7.63;2.22;;;;;;;;;;5015717;28;20096;-78
2023/03/16 10:28:25;;;;;;;7.68;1.70;;;;;;;;;;4996426;28;20025;-77
2023/03/16 10:30:55;;;;;;;4.82;0.68;;;;;;;;;;4996142;28;20575;-77
2023/03/16 10:33:23;;;;;;;4.38;1.35;;;;;;;;;;5015766;28;20026;-77
2023/03/16 10:35:51;;;;;;;12.95;3.58;;;;;;;;;;5017754;28;20097;-78
2023/03/16 10:38:29;;;;;;;5.78;1.30;;;;;;;;;;5017429;28;20444;-78
2023/03/16 10:40:59;;;;;;;9.00;2.55;;;;;;;;;;5006983;28;20140;-80
2023/03/16 10:43:26;;;;;;;5.80;1.70;;;;;;;;;;5010773;28;20030;-78
2023/03/16 10:45:59;;;;;;;22.42;6.15;;;;;;;;;;5016274;28;20053;-78
2023/03/16 10:48:27;;;;;;;4.00;1.30;;;;;;;;;;5018154;28;20109;-79
2023/03/16 10:50:57;;;;;;;2.50;0.85;;;;;;;;;;5016460;28;20017;-79
2023/03/16 10:53:25;;;;;;;4.32;1.15;;;;;;;;;;5010411;28;20026;-79
2023/03/16 10:55:57;;;;;;;1.80;0.77;;;;;;;;;;5018143;28;20143;-79
2023/03/16 10:58:24;;;;;;;;;;;;;;;;;;5012922;28;20025;-79
2023/03/16 11:00:58;;;;;;;5.75;1.67;;;;;;;;;;5014706;28;20546;-87
2023/03/16 11:03:39;;;;;;;15.20;3.30;;;;;;;;;;4996000;28;20061;-87
2023/03/16 11:06:06;;;;;;;6.38;1.35;;;;;;;;;;4999790;28;20567;-79
2023/03/16 11:08:37;;;;;;;3.67;1.10;;;;;;;;;;5016422;28;20029;-81
2023/03/16 11:11:30;;;;;;;7.13;1.40;;;;;;;;;;4995687;28;20022;-82
2023/03/16 11:14:00;;;;;;;8.38;1.92;;;;;;;;;;4997036;28;20124;-82
2023/03/16 11:16:35;;;;;;;6.68;1.70;;;;;;;;;;4998936;28;20081;-82
2023/03/16 11:19:20;;;;;;;10.20;2.15;;;;;;;;;;5002229;28;20136;-82
2023/03/16 11:21:53;;;;;;;6.88;2.20;;;;;;;;;;4998253;28;20104;-86
2023/03/16 11:24:25;;;;;;;5.35;1.52;;;;;;;;;;4999630;28;20041;-82
2023/03/16 11:26:51;;;;;;;;;;;;;;;;;;5005990;28;20448;-82
2023/03/16 11:29:21;;;;;;;4.13;1.48;;;;;;;;;;5020620;28;20431;-80
2023/03/16 11:31:52;;;;;;;3.58;1.20;;;;;;;;;;5015193;28;20434;-83
2023/03/16 11:34:22;;;;;;;3.60;1.30;;;;;;;;;;4997380;28;20045;-83
2023/03/16 11:36:51;;;;;;;3.78;1.23;;;;;;;;;;4992641;28;20034;-83
2023/03/16 11:39:39;;;;;;;5.68;1.48;;;;;;;;;;4998834;28;20464;-84
2023/03/16 11:42:27;;;;;;;8.93;2.53;;;;;;;;;;4983997;28;20045;-84
2023/03/16 11:44:58;;;;;;;7.30;2.80;;;;;;;;;;5001671;28;20181;-79
2023/03/16 11:47:27;;;;;;;4.47;1.25;;;;;;;;;;5000354;28;20117;-78
2023/03/16 11:50:12;;;;;;;4.32;1.17;;;;;;;;;;4999754;28;20089;-77
2023/03/16 11:53:02;;;;;;;8.07;1.17;;;;;;;;;;4980823;28;20041;-77
2023/03/16 11:55:49;;;;;;;8.65;1.10;;;;;;;;;;4938361;28;20113;-78
2023/03/16 11:58:16;;;;;;;7.50;1.20;;;;;;;;;;4986614;28;20088;-79
2023/03/16 12:00:42;;;;;;;7.70;1.95;;;;;;;;;;4996984;28;20022;-78
2023/03/16 12:03:26;;;;;;;6.10;2.25;;;;;;;;;;4997992;28;20116;-78
2023/03/16 12:06:11;;;;;;;6.00;1.10;;;;;;;;;;4997866;28;20149;-79
2023/03/16 12:08:37;;;;;;;7.55;2.55;;;;;;;;;;4995147;28;20494;-78
2023/03/16 12:11:36;;;;;;;7.70;1.83;;;;;;;;;;4998518;28;20038;-78
2023/03/16 12:14:15;;;;;;;2.88;0.88;;;;;;;;;;4941349;28;20717;-78
2023/03/16 12:17:08;;;;;;;8.10;2.58;;;;;;;;;;4996250;28;20505;-78
2023/03/16 12:19:34;;;;;;;;;;;;;;;;;;4991296;28;20069;-79
2023/03/16 12:22:09;;;;;;;8.23;1.55;;;;;;;;;;5001494;28;19944;-79
2023/03/16 12:24:41;;;;;;;5.38;1.33;;;;;;;;;;4980254;28;20026;-80
2023/03/16 12:27:11;;;;;;;4.93;1.20;;;;;;;;;;5002195;28;20030;-79
2023/03/16 12:29:57;;;;;;;8.43;1.23;;;;;;;;;;5000021;28;20036;-75
2023/03/16 12:32:33;;;;;;;4.38;1.23;;;;;;;;;;4997279;28;20045;-74
2023/03/16 12:34:59;;;;;;;6.05;1.27;;;;;;;;;;4995486;28;20699;-74
2023/03/16 12:37:26;;;;;;;5.65;1.65;;;;;;;;;;4996260;28;20131;-75
2023/03/16 12:40:06;;;;;;;3.45;1.15;;;;;;;;;;5000519;28;20041;-74
2023/03/16 12:42:39;;;;;;;16.88;2.03;;;;;;;;;;5017448;28;20419;-73
2023/03/16 12:45:20;;;;;;;8.48;1.20;;;;;;;;;;5018696;28;20069;-73
2023/03/16 12:47:53;;;;;;;7.00;3.00;;;;;;;;;;5016835;28;20021;-74
2023/03/16 12:50:19;;;;;;;5.95;1.23;;;;;;;;;;5015841;28;20452;-74
2023/03/16 12:52:47;;;;;;;3.58;1.25;;;;;;;;;;4996610;28;20410;-74
2023/03/16 12:55:15;;;;;;;4.28;1.08;;;;;;;;;;4995460;28;20028;-75
2023/03/16 12:57:42;;;;;;;24.20;2.90;;;;;;;;;;5013450;28;20549;-75
2023/03/16 13:00:09;;;;;;;9.00;2.50;;;;;;;;;;5018605;28;20108;-74
2023/03/16 13:02:36;;;;;;;5.05;1.50;;;;;;;;;;5020587;28;20057;-77
2023/03/16 13:05:10;;;;;;;4.85;1.25;;;;;;;;;;5016559;28;20039;-78
2023/03/16 13:07:38;;;;;;;7.40;1.48;;;;;;;;;;5016361;28;20057;-77
2023/03/16 13:10:08;;;;;;;3.70;1.33;;;;;;;;;;5015040;28;20022;-77
2023/03/16 13:12:37;;;;;;;7.30;1.85;;;;;;;;;;5016050;28;20017;-78
2023/03/16 13:15:16;;;;;;;5.80;1.27;;;;;;;;;;5018917;28;20032;-79
2023/03/16 13:17:43;;;;;;;6.13;2.13;;;;;;;;;;4998448;28;20028;-79
2023/03/16 13:20:12;;;;;;;5.78;1.10;;;;;;;;;;4998785;28;20474;-79
2023/03/16 13:22:42;;;;;;;5.22;1.95;;;;;;;;;;4998504;28;20878;-79
2023/03/16 13:25:27;;;;;;;4.88;1.20;;;;;;;;;;5020309;28;20059;-78
2023/03/16 13:27:55;;;;;;;6.53;1.17;;;;;;;;;;5010315;28;20030;-78
2023/03/16 13:30:23;;;;;;;5.00;1.17;;;;;;;;;;4989980;28;20034;-77
2023/03/16 13:32:52;;;;;;;3.13;1.00;;;;;;;;;;5011191;28;20064;-78
2023/03/16 13:35:19;;;;;;;5.38;1.20;;;;;;;;;;5013869;28;20025;-79
2023/03/16 13:37:46;;;;;;;4.18;1.10;;;;;;;;;;5019064;28;20126;-78
2023/03/16 13:40:20;;;;;;;4.85;1.20;;;;;;;;;;4991627;28;20041;-78
2023/03/16 13:42:52;;;;;;;11.25;1.58;;;;;;;;;;5000076;28;20022;-79
2023/03/16 13:45:23;;;;;;;3.80;1.00;;;;;;;;;;4999951;28;20021;-79
2023/03/16 13:47:50;;;;;;;2.17;1.00;;;;;;;;;;5012555;28;20029;-79
2023/03/16 13:50:18;;;;;;;3.97;1.20;;;;;;;;;;4996080;28;20033;-78
2023/03/16 13:52:51;;;;;;;3.95;0.82;;;;;;;;;;5015757;28;20034;-78
2023/03/16 13:55:21;;;;;;;3.60;1.00;;;;;;;;;;5000372;28;20032;-78
2023/03/16 13:57:48;;;;;;;5.18;1.13;;;;;;;;;;5004346;28;20052;-78
2023/03/16 14:00:19;;;;;;;8.07;1.10;;;;;;;;;;5011891;28;20057;-79
2023/03/16 14:02:50;;;;;;;6.65;1.70;;;;;;;;;;4998585;28;20029;-78
2023/03/16 14:05:17;;;;;;;;;;;;;;;;;;4996894;28;20035;-79
2023/03/16 14:07:48;;;;;;;4.13;1.10;;;;;;;;;;5001462;28;19920;-79
2023/03/16 14:10:16;;;;;;;3.70;1.60;;;;;;;;;;4995697;28;20032;-79
2023/03/16 14:12:54;;;;;;;7.10;2.00;;;;;;;;;;4995279;28;20081;-78
2023/03/16 14:15:22;;;;;;;3.60;1.10;;;;;;;;;;5000009;28;20036;-78
2023/03/16 14:17:48;;;;;;;4.75;1.10;;;;;;;;;;5010366;28;20025;-79
2023/03/16 14:20:19;;;;;;;2.55;0.98;;;;;;;;;;5014183;28;20071;-79
2023/03/16 14:22:46;;;;;;;5.90;1.33;;;;;;;;;;4993406;28;20033;-75
2023/03/16 14:25:20;;;;;;;7.65;1.48;;;;;;;;;;5013855;28;20033;-79
2023/03/16 14:27:47;;;;;;;6.40;1.75;;;;;;;;;;4995469;28;20457;-78
2023/03/16 14:30:23;;;;;;;3.78;1.00;;;;;;;;;;5014322;28;20025;-79
2023/03/16 14:33:24;;;;;;;3.80;1.00;;;;;;;;;;5000515;28;20524;-78
2023/03/16 14:35:54;;;;;;;7.03;1.13;;;;;;;;;;5017305;28;20116;-81
2023/03/16 14:38:31;;;;;;;5.15;1.10;;;;;;;;;;5011632;28;20026;-79
2023/03/16 14:41:02;;;;;;;3.47;0.88;;;;;;;;;;5016329;28;20048;-77
2023/03/16 14:43:31;;;;;;;2.97;0.93;;;;;;;;;;4994102;28;20037;-78
2023/03/16 14:45:58;;;;;;;6.20;1.20;;;;;;;;;;5013227;28;20097;-79
2023/03/16 14:48:25;;;;;;;5.30;1.17;;;;;;;;;;5014591;28;20025;-79
2023/03/16 14:50:56;;;;;;;6.40;1.98;;;;;;;;;;5014807;28;20101;-78